Time;durP1;ratioP1;P1;durP2;ratioP2;P2;SDS_P1;SDS_P2;PMS_P1;PMS_P2;Temp;Humidity;BMP_temperature;BMP_pressure;BME280_temperature;BME280_humidity;BME280_pressure;Samples;Min_cycle;Max_cycle;Signal;HPM_P1;HPM_P2
2023/06/20 00:00:40;;;;;;;6.87;6.27;;;26.00;93.70;;;;;;5013816;28;20239;-72
2023/06/20 00:03:06;;;;;;;6.93;6.33;;;26.00;93.70;;;;;;5002311;28;20304;-73
2023/06/20 00:05:31;;;;;;;9.50;7.37;;;26.10;93.80;;;;;;5014338;28;20223;-74
2023/06/20 00:07:57;;;;;;;8.20;7.33;;;26.10;93.70;;;;;;5007146;28;20308;-73
2023/06/20 00:10:23;;;;;;;7.80;7.00;;;26.10;93.60;;;;;;4991245;28;20743;-73
2023/06/20 00:12:48;;;;;;;6.10;5.67;;;26.10;93.80;;;;;;5000314;28;20247;-72
2023/06/20 00:15:15;;;;;;;7.60;6.90;;;26.10;93.30;;;;;;4995872;28;20696;-73
2023/06/20 00:17:40;;;;;;;6.90;6.30;;;26.10;93.60;;;;;;5005872;28;20229;-72
2023/06/20 00:20:08;;;;;;;7.73;6.80;;;26.10;93.60;;;;;;5012337;28;20510;-74
2023/06/20 00:22:34;;;;;;;6.90;6.33;;;26.10;94.00;;;;;;5008362;28;20691;-74
2023/06/20 00:25:04;;;;;;;6.93;6.43;;;26.10;94.30;;;;;;5006748;28;20837;-74
2023/06/20 00:27:30;;;;;;;7.13;6.43;;;26.10;94.20;;;;;;5002400;28;20985;-73
2023/06/20 00:29:55;;;;;;;8.13;7.30;;;25.90;94.70;;;;;;4996399;28;20452;-73
2023/06/20 00:32:21;;;;;;;7.60;6.90;;;25.90;95.00;;;;;;4989854;28;20228;-73
2023/06/20 00:34:46;;;;;;;7.10;6.40;;;26.00;95.20;;;;;;5007016;28;20221;-73
2023/06/20 00:37:13;;;;;;;8.00;7.30;;;25.90;95.50;;;;;;4990232;28;20213;-73
2023/06/20 00:39:39;;;;;;;7.20;6.33;;;25.80;95.30;;;;;;5005898;28;20515;-73
2023/06/20 00:42:15;;;;;;;7.90;7.10;;;25.70;95.70;;;;;;5000964;28;20217;-73
2023/06/20 00:44:42;;;;;;;7.03;6.43;;;25.70;95.90;;;;;;5006598;28;20549;-73
2023/06/20 00:47:08;;;;;;;6.50;5.93;;;25.80;96.00;;;;;;4999436;28;20492;-73
2023/06/20 00:49:33;;;;;;;7.93;6.70;;;25.80;96.30;;;;;;5013748;28;20562;-73
2023/06/20 00:52:02;;;;;;;9.30;7.23;;;25.80;96.20;;;;;;5005987;28;20907;-72
2023/06/20 00:54:28;;;;;;;7.30;6.70;;;25.70;96.20;;;;;;5007353;28;20319;-72
2023/06/20 00:56:55;;;;;;;6.40;5.87;;;25.70;96.70;;;;;;5006066;28;20483;-73
2023/06/20 00:59:20;;;;;;;7.80;7.10;;;25.70;96.60;;;;;;5005638;28;20468;-72
2023/06/20 01:01:46;;;;;;;7.43;6.83;;;25.70;96.60;;;;;;5012517;28;20225;-72
2023/06/20 01:04:12;;;;;;;8.10;6.90;;;25.60;96.90;;;;;;5012537;28;20225;-74
2023/06/20 01:06:46;;;;;;;8.53;7.83;;;25.50;97.30;;;;;;4984735;28;20221;-72
2023/06/20 01:09:25;;;;;;;8.27;6.60;;;25.60;97.20;;;;;;4986684;28;20312;-72
2023/06/20 01:12:08;;;;;;;7.83;7.03;;;25.60;96.60;;;;;;5001606;28;20448;-72
2023/06/20 01:14:59;;;;;;;6.60;6.00;;;25.60;96.70;;;;;;5007172;28;20464;-72
2023/06/20 01:17:37;;;;;;;7.13;6.43;;;25.60;97.10;;;;;;5008810;28;20455;-75
2023/06/20 01:20:25;;;;;;;6.40;5.83;;;25.60;97.30;;;;;;5011182;28;20455;-74
2023/06/20 01:23:02;;;;;;;7.40;6.67;;;25.60;97.40;;;;;;5004918;28;20491;-75
2023/06/20 01:25:33;;;;;;;6.80;6.20;;;25.60;97.40;;;;;;5007318;28;20888;-75
2023/06/20 01:28:26;;;;;;;7.27;6.67;;;25.50;97.60;;;;;;5016602;28;20457;-75
2023/06/20 01:31:05;;;;;;;6.70;6.20;;;25.60;97.50;;;;;;5011144;28;20573;-72
2023/06/20 01:33:40;;;;;;;7.17;6.50;;;25.50;97.50;;;;;;5002293;28;20463;-73
2023/06/20 01:36:07;;;;;;;7.10;6.50;;;25.50;97.60;;;;;;5014846;28;20891;-74
2023/06/20 01:38:34;;;;;;;6.97;6.37;;;25.50;97.70;;;;;;5005005;28;20467;-73
2023/06/20 01:41:01;;;;;;;7.30;6.70;;;25.40;98.00;;;;;;5019062;28;20454;-73
2023/06/20 01:43:30;;;;;;;7.20;6.60;;;25.40;98.10;;;;;;5010979;28;20508;-73
2023/06/20 01:45:57;;;;;;;7.57;6.87;;;25.40;98.10;;;;;;5012299;28;20546;-73
2023/06/20 01:48:25;;;;;;;7.07;6.47;;;25.30;98.30;;;;;;5011404;28;20577;-73
2023/06/20 01:50:52;;;;;;;7.10;6.60;;;25.40;98.30;;;;;;4994548;28;20472;-73
2023/06/20 01:53:19;;;;;;;7.43;6.83;;;25.30;97.80;;;;;;5016821;28;20871;-73
2023/06/20 01:55:47;;;;;;;7.67;6.97;;;25.40;98.20;;;;;;5010630;28;20475;-74
2023/06/20 01:58:15;;;;;;;7.30;6.63;;;25.30;98.20;;;;;;4997933;28;20459;-73
2023/06/20 02:00:42;;;;;;;6.73;6.03;;;25.20;98.40;;;;;;4985118;28;20479;-72
2023/06/20 02:03:10;;;;;;;6.33;5.83;;;25.30;98.60;;;;;;5006920;28;20467;-73
2023/06/20 02:05:40;;;;;;;7.53;6.93;;;25.20;98.50;;;;;;5017415;28;20569;-72
2023/06/20 02:08:06;;;;;;;7.67;6.70;;;25.20;98.60;;;;;;5011050;28;20467;-72
2023/06/20 02:10:33;;;;;;;7.03;6.33;;;25.00;99.30;;;;;;4991615;28;20452;-72
2023/06/20 02:13:02;;;;;;;8.50;6.33;;;24.90;99.30;;;;;;5021841;28;20842;-73
2023/06/20 02:15:29;;;;;;;8.17;7.37;;;24.90;99.60;;;;;;5001744;28;20463;-72
2023/06/20 02:17:57;;;;;;;6.87;6.30;;;24.80;99.90;;;;;;5020035;28;20274;-72
2023/06/20 02:20:22;;;;;;;6.70;6.10;;;24.80;99.80;;;;;;5016137;28;20455;-74
2023/06/20 02:22:51;;;;;;;8.43;6.70;;;24.80;99.40;;;;;;5015009;28;20225;-72
2023/06/20 02:25:21;;;;;;;6.37;5.87;;;24.90;99.50;;;;;;5017280;28;20224;-73
2023/06/20 02:27:50;;;;;;;6.73;5.80;;;24.90;99.20;;;;;;5024584;28;20537;-73
2023/06/20 02:30:21;;;;;;;8.67;7.67;;;24.90;98.90;;;;;;4996893;28;20448;-75
2023/06/20 02:32:49;;;;;;;7.47;6.77;;;25.00;99.10;;;;;;5015813;28;20476;-74
2023/06/20 02:35:17;;;;;;;7.77;7.03;;;25.00;99.20;;;;;;5016112;28;20436;-72
2023/06/20 02:37:48;;;;;;;7.10;6.47;;;24.90;99.20;;;;;;4993576;28;20459;-72
2023/06/20 02:40:13;;;;;;;8.23;6.80;;;24.80;99.20;;;;;;5009750;28;21016;-73
2023/06/20 02:42:39;;;;;;;7.37;6.73;;;24.80;99.50;;;;;;5011868;28;20472;-73
2023/06/20 02:45:05;;;;;;;7.13;6.47;;;24.90;99.60;;;;;;5010480;28;20221;-72
2023/06/20 02:47:49;;;;;;;7.40;6.80;;;24.90;99.40;;;;;;5017100;28;20688;-74
2023/06/20 02:50:34;;;;;;;6.97;6.37;;;24.90;99.30;;;;;;5004734;28;20456;-73
2023/06/20 02:53:11;;;;;;;6.50;5.90;;;24.90;99.70;;;;;;5000428;28;20468;-72
2023/06/20 02:55:38;;;;;;;6.17;5.63;;;24.90;99.20;;;;;;4999256;28;20455;-71
2023/06/20 02:58:12;;;;;;;6.77;6.17;;;24.80;99.00;;;;;;5008725;28;21223;-72
2023/06/20 03:00:40;;;;;;;7.80;7.00;;;24.80;98.90;;;;;;4993932;28;20981;-74
2023/06/20 03:03:18;;;;;;;6.70;6.20;;;24.80;99.20;;;;;;4996190;28;20445;-76
2023/06/20 03:05:45;;;;;;;6.53;5.93;;;24.80;99.60;;;;;;4985851;28;20449;-74
2023/06/20 03:08:13;;;;;;;6.93;6.33;;;24.90;99.30;;;;;;4983787;28;20520;-72
2023/06/20 03:10:41;;;;;;;7.37;6.67;;;24.80;99.50;;;;;;5026068;28;20992;-73
2023/06/20 03:13:07;;;;;;;6.20;5.60;;;24.80;99.70;;;;;;4989309;28;20456;-75
2023/06/20 03:15:33;;;;;;;7.13;6.43;;;24.70;99.60;;;;;;5014557;28;20457;-74
2023/06/20 03:18:02;;;;;;;6.87;6.23;;;24.70;99.50;;;;;;4988412;28;20523;-74
2023/06/20 03:20:28;;;;;;;9.37;6.47;;;24.60;99.90;;;;;;5005743;28;20607;-75
2023/06/20 03:22:54;;;;;;;7.00;6.30;;;24.60;99.90;;;;;;4992045;28;20476;-75
2023/06/20 03:25:20;;;;;;;6.37;5.87;;;24.60;99.90;;;;;;5015042;28;20221;-74
2023/06/20 03:27:46;;;;;;;7.40;6.70;;;24.60;99.60;;;;;;5007029;28;20464;-74
2023/06/20 03:30:13;;;;;;;7.53;6.90;;;24.60;99.60;;;;;;5014794;28;20239;-75
2023/06/20 03:32:44;;;;;;;7.60;6.90;;;24.60;99.60;;;;;;5007461;28;20209;-75
2023/06/20 03:35:13;;;;;;;7.70;7.00;;;24.50;99.90;;;;;;5010369;28;20451;-74
2023/06/20 03:37:38;;;;;;;7.20;6.60;;;24.50;99.90;;;;;;5009591;28;20224;-75
2023/06/20 03:40:05;;;;;;;7.80;7.07;;;24.50;99.90;;;;;;5020320;28;20448;-72
2023/06/20 03:42:33;;;;;;;7.80;7.00;;;24.60;99.90;;;;;;5006659;28;20236;-71
2023/06/20 03:44:59;;;;;;;6.10;5.60;;;24.60;99.90;;;;;;5007446;28;20428;-72
2023/06/20 03:47:25;;;;;;;7.47;6.77;;;24.50;99.90;;;;;;5006941;28;20592;-74
2023/06/20 03:49:52;;;;;;;7.57;6.73;;;24.40;99.90;;;;;;4991932;28;20213;-74
2023/06/20 03:52:19;;;;;;;7.23;6.63;;;24.50;99.90;;;;;;5010618;28;20833;-73
2023/06/20 03:54:44;;;;;;;8.10;7.30;;;24.50;99.90;;;;;;5003946;28;20555;-74
2023/06/20 03:57:10;;;;;;;7.07;6.47;;;24.40;99.90;;;;;;5000584;28;20209;-74
2023/06/20 03:59:36;;;;;;;7.43;6.53;;;24.50;99.90;;;;;;4997968;28;20227;-74
2023/06/20 04:02:01;;;;;;;7.40;6.70;;;24.50;99.90;;;;;;5013223;28;20216;-74
2023/06/20 04:04:29;;;;;;;7.40;6.70;;;24.50;99.90;;;;;;5000748;28;20213;-72
2023/06/20 04:06:55;;;;;;;9.30;7.73;;;24.50;99.90;;;;;;5014390;28;20213;-75
2023/06/20 04:09:25;;;;;;;7.63;6.80;;;24.40;99.90;;;;;;4998948;28;21009;-74
2023/06/20 04:11:51;;;;;;;8.57;7.70;;;24.40;99.90;;;;;;4995447;28;20321;-75
2023/06/20 04:14:16;;;;;;;7.07;6.47;;;24.40;99.90;;;;;;4999306;28;20886;-74
2023/06/20 04:16:44;;;;;;;8.33;7.53;;;24.40;99.90;;;;;;4990549;28;20221;-74
2023/06/20 04:19:10;;;;;;;8.60;7.80;;;24.40;99.90;;;;;;5006923;28;20295;-74
2023/06/20 04:21:36;;;;;;;7.40;6.70;;;24.40;99.90;;;;;;4993824;28;20490;-73
2023/06/20 04:24:02;;;;;;;7.40;6.70;;;24.40;99.90;;;;;;4991588;28;20456;-74
2023/06/20 04:26:31;;;;;;;7.70;7.00;;;24.30;99.90;;;;;;5012227;28;20464;-73
2023/06/20 04:28:57;;;;;;;7.67;6.90;;;24.30;99.90;;;;;;4992548;28;20782;-74
2023/06/20 04:31:23;;;;;;;7.80;7.00;;;24.30;99.90;;;;;;4996709;28;20553;-74
2023/06/20 04:33:48;;;;;;;9.07;7.60;;;24.30;99.90;;;;;;5012759;28;20535;-74
2023/06/20 04:36:14;;;;;;;8.43;7.53;;;24.20;99.90;;;;;;5014457;28;20270;-74
2023/06/20 04:38:43;;;;;;;8.00;7.30;;;24.30;99.90;;;;;;5006391;28;20300;-74
2023/06/20 04:41:09;;;;;;;7.67;6.97;;;24.30;99.90;;;;;;5003740;28;20479;-74
2023/06/20 04:43:35;;;;;;;7.53;6.90;;;24.30;99.90;;;;;;4989058;28;20522;-73
2023/06/20 04:46:02;;;;;;;9.87;7.70;;;24.30;99.90;;;;;;5009265;28;20472;-73
2023/06/20 04:48:35;;;;;;;8.27;7.50;;;24.30;99.90;;;;;;5003111;28;20838;-74
2023/06/20 04:51:02;;;;;;;12.03;6.90;;;24.30;99.90;;;;;;4999063;28;20463;-74
2023/06/20 04:53:28;;;;;;;7.73;6.83;;;24.30;99.90;;;;;;5000424;28;20458;-74
2023/06/20 04:55:55;;;;;;;7.93;7.13;;;24.40;99.90;;;;;;5004094;28;20495;-74
2023/06/20 04:58:20;;;;;;;9.00;7.47;;;24.40;99.90;;;;;;5004068;28;20456;-74
2023/06/20 05:00:48;;;;;;;8.17;7.47;;;24.30;99.90;;;;;;5002540;28;20814;-75
2023/06/20 05:03:14;;;;;;;14.33;7.10;;;24.30;99.90;;;;;;5004877;28;20228;-75
2023/06/20 05:05:40;;;;;;;8.33;7.53;;;24.40;99.90;;;;;;4988800;28;20476;-73
2023/06/20 05:08:06;;;;;;;7.93;7.13;;;24.40;99.90;;;;;;4985055;28;20601;-73
2023/06/20 05:10:32;;;;;;;8.33;7.50;;;24.40;99.90;;;;;;4999499;28;20464;-73
2023/06/20 05:12:57;;;;;;;8.30;7.53;;;24.50;99.90;;;;;;4999079;28;20768;-75
2023/06/20 05:15:24;;;;;;;8.03;7.27;;;24.50;99.90;;;;;;5000227;28;20229;-73
2023/06/20 05:17:51;;;;;;;9.03;8.23;;;24.50;99.90;;;;;;4983326;28;20241;-73
2023/06/20 05:20:17;;;;;;;9.23;8.37;;;24.50;99.90;;;;;;5000656;28;20469;-74
2023/06/20 05:22:43;;;;;;;8.80;7.90;;;24.50;99.90;;;;;;4995176;28;20476;-72
2023/06/20 05:25:09;;;;;;;9.60;8.70;;;24.50;99.90;;;;;;5002978;28;20547;-72
2023/06/20 05:27:35;;;;;;;9.37;8.37;;;24.60;99.90;;;;;;4998563;28;20201;-74
2023/06/20 05:30:01;;;;;;;10.13;8.20;;;24.60;99.90;;;;;;5001032;28;20225;-74
2023/06/20 05:32:26;;;;;;;9.10;8.30;;;24.60;99.90;;;;;;5005725;28;20680;-75
2023/06/20 05:34:53;;;;;;;10.07;8.77;;;24.60;99.90;;;;;;5005846;28;20219;-75
2023/06/20 05:37:19;;;;;;;9.17;8.27;;;24.60;99.90;;;;;;5006116;28;20231;-74
2023/06/20 05:39:45;;;;;;;10.90;9.57;;;24.60;99.90;;;;;;4990088;28;20449;-74
2023/06/20 05:42:10;;;;;;;9.00;8.00;;;24.70;99.90;;;;;;5002626;28;21004;-75
2023/06/20 05:44:36;;;;;;;9.87;8.97;;;24.70;99.90;;;;;;4999271;28;20218;-74
2023/06/20 05:47:05;;;;;;;8.73;7.97;;;24.70;99.90;;;;;;5002429;28;20217;-74
2023/06/20 05:49:32;;;;;;;10.37;9.27;;;24.80;99.90;;;;;;4987200;28;20591;-74
2023/06/20 05:51:57;;;;;;;9.93;8.93;;;24.70;99.90;;;;;;5002169;28;20468;-74
2023/06/20 05:54:26;;;;;;;10.00;9.00;;;24.80;99.90;;;;;;5005853;28;20478;-74
2023/06/20 05:56:52;;;;;;;8.77;7.90;;;24.80;99.90;;;;;;5002558;28;20214;-74
2023/06/20 05:59:18;;;;;;;10.50;9.40;;;24.90;99.90;;;;;;4997617;28;20472;-73
2023/06/20 06:01:45;;;;;;;11.57;9.60;;;24.90;99.90;;;;;;4989576;28;20548;-74
2023/06/20 06:04:11;;;;;;;10.67;9.60;;;24.90;99.90;;;;;;5003239;28;20711;-73
2023/06/20 06:06:37;;;;;;;9.90;8.87;;;24.80;99.90;;;;;;5004780;28;20475;-74
2023/06/20 06:09:03;;;;;;;10.13;9.20;;;24.90;99.90;;;;;;5002880;28;20229;-74
2023/06/20 06:11:29;;;;;;;10.40;9.33;;;24.90;99.90;;;;;;5005082;28;20225;-74
2023/06/20 06:13:55;;;;;;;10.60;9.50;;;24.90;99.90;;;;;;5003517;28;20476;-74
2023/06/20 06:16:21;;;;;;;10.90;9.90;;;24.90;99.90;;;;;;5008767;28;20970;-73
2023/06/20 06:18:47;;;;;;;10.50;9.50;;;25.00;99.90;;;;;;4990261;28;20280;-74
2023/06/20 06:21:13;;;;;;;8.93;8.17;;;25.00;99.90;;;;;;5006689;28;20952;-74
2023/06/20 06:23:38;;;;;;;9.23;8.33;;;25.10;99.90;;;;;;4990458;28;20217;-73
2023/06/20 06:26:04;;;;;;;10.10;9.10;;;25.20;99.90;;;;;;4998647;28;20245;-74
2023/06/20 06:28:30;;;;;;;9.97;8.97;;;25.20;99.90;;;;;;4999945;28;20249;-75
2023/06/20 06:30:59;;;;;;;10.50;9.53;;;25.30;99.90;;;;;;5002715;28;20359;-74
2023/06/20 06:33:25;;;;;;;10.27;9.37;;;25.40;99.90;;;;;;5006878;28;20218;-73
2023/06/20 06:35:51;;;;;;;10.03;9.13;;;25.50;99.90;;;;;;5004191;28;20472;-74
2023/06/20 06:38:17;;;;;;;11.20;10.20;;;25.50;99.90;;;;;;5003351;28;20469;-73
2023/06/20 06:40:46;;;;;;;10.30;9.30;;;25.50;99.90;;;;;;5000007;28;20486;-74
2023/06/20 06:43:12;;;;;;;11.57;10.57;;;25.50;99.90;;;;;;5003543;28;20311;-74
2023/06/20 06:45:38;;;;;;;10.57;9.60;;;25.60;99.90;;;;;;5002140;28;20534;-74
2023/06/20 06:48:04;;;;;;;10.50;9.60;;;25.60;99.90;;;;;;5004446;28;20465;-74
2023/06/20 06:50:29;;;;;;;11.70;10.70;;;25.50;99.90;;;;;;5007430;28;20225;-74
2023/06/20 06:52:55;;;;;;;10.73;9.80;;;25.30;99.90;;;;;;5005984;28;20673;-74
2023/06/20 06:55:21;;;;;;;10.70;9.80;;;25.40;99.90;;;;;;5003749;28;20226;-74
2023/06/20 06:57:46;;;;;;;10.37;9.27;;;25.50;99.90;;;;;;5007117;28;20218;-73
2023/06/20 07:00:14;;;;;;;11.40;10.30;;;25.50;99.90;;;;;;4988078;28;20224;-74
2023/06/20 07:02:41;;;;;;;12.87;11.67;;;25.50;99.90;;;;;;4988809;28;20665;-75
2023/06/20 07:05:07;;;;;;;11.03;10.00;;;25.60;99.90;;;;;;5005568;28;20473;-74
2023/06/20 07:07:33;;;;;;;13.70;11.17;;;25.50;99.90;;;;;;4989319;28;20469;-74
2023/06/20 07:09:59;;;;;;;11.60;10.50;;;25.60;99.90;;;;;;4999986;28;20232;-74
2023/06/20 07:12:24;;;;;;;11.60;10.17;;;25.50;99.90;;;;;;4982670;28;20232;-75
2023/06/20 07:14:52;;;;;;;10.83;9.77;;;25.50;99.90;;;;;;5004053;28;20240;-73
2023/06/20 07:17:17;;;;;;;11.53;10.53;;;25.60;99.90;;;;;;5001350;28;20277;-74
2023/06/20 07:19:43;;;;;;;12.00;10.90;;;25.70;99.90;;;;;;5001555;28;20457;-74
2023/06/20 07:22:09;;;;;;;11.47;10.10;;;25.80;99.90;;;;;;5002995;28;20221;-74
2023/06/20 07:24:35;;;;;;;11.60;10.60;;;25.80;99.90;;;;;;5005395;28;20288;-75
2023/06/20 07:27:01;;;;;;;12.07;10.77;;;25.80;99.90;;;;;;4983437;28;20309;-76
2023/06/20 07:29:26;;;;;;;10.40;9.40;;;25.80;99.90;;;;;;5002660;28;20313;-74
2023/06/20 07:31:52;;;;;;;10.93;9.90;;;25.80;99.90;;;;;;5001191;28;20249;-74
2023/06/20 07:34:18;;;;;;;11.67;10.50;;;25.90;99.90;;;;;;4987304;28;20785;-74
2023/06/20 07:36:43;;;;;;;13.80;11.00;;;26.10;99.90;;;;;;5004836;28;20213;-73
2023/06/20 07:39:09;;;;;;;10.70;9.80;;;26.20;99.90;;;;;;5004414;28;20577;-74
2023/06/20 07:41:35;;;;;;;11.40;10.30;;;26.30;99.90;;;;;;4989585;28;20282;-72
2023/06/20 07:44:00;;;;;;;10.47;9.57;;;26.30;99.90;;;;;;4987920;28;20256;-74
2023/06/20 07:46:26;;;;;;;11.17;10.17;;;26.40;99.90;;;;;;5001947;28;20210;-74
2023/06/20 07:48:52;;;;;;;11.03;10.13;;;26.60;99.90;;;;;;4987155;28;20230;-74
2023/06/20 07:51:18;;;;;;;11.80;10.70;;;26.70;99.90;;;;;;4998677;28;20527;-73
2023/06/20 07:53:43;;;;;;;12.27;11.00;;;26.60;99.90;;;;;;5002524;28;20259;-74
2023/06/20 07:56:09;;;;;;;12.30;11.10;;;26.70;99.90;;;;;;5006556;28;20216;-74
2023/06/20 07:58:34;;;;;;;11.20;10.27;;;26.70;99.90;;;;;;5007562;28;20217;-75
2023/06/20 08:01:00;;;;;;;12.77;11.57;;;26.60;99.90;;;;;;5000236;28;20297;-76
2023/06/20 08:03:26;;;;;;;11.33;10.33;;;26.80;99.90;;;;;;5001504;28;20252;-74
2023/06/20 08:05:52;;;;;;;11.80;10.70;;;27.00;99.90;;;;;;5004600;28;20275;-74
2023/06/20 08:08:18;;;;;;;11.45;10.25;;;27.20;99.90;;;;;;4985322;28;20488;-74
2023/06/20 08:10:44;;;;;;;11.75;10.63;;;27.20;99.90;;;;;;5002701;28;20263;-75
2023/06/20 08:13:10;;;;;;;12.30;11.30;;;27.20;99.90;;;;;;4994757;28;20300;-75
2023/06/20 08:15:35;;;;;;;14.27;12.93;;;27.40;99.90;;;;;;4982754;28;20253;-74
2023/06/20 08:18:01;;;;;;;11.05;10.20;;;27.70;99.90;;;;;;4990528;28;20233;-74
2023/06/20 08:20:27;;;;;;;11.65;10.60;;;27.90;99.90;;;;;;5000104;28;20316;-75
2023/06/20 08:22:53;;;;;;;13.45;12.40;;;28.10;99.90;;;;;;4980545;28;20217;-74
2023/06/20 08:25:18;;;;;;;12.93;11.70;;;28.00;99.90;;;;;;4996865;28;20229;-74
2023/06/20 08:27:44;;;;;;;12.88;11.68;;;27.80;99.90;;;;;;5000742;28;20217;-74
2023/06/20 08:30:11;;;;;;;11.98;10.98;;;27.60;99.90;;;;;;4995401;28;20205;-73
2023/06/20 08:32:39;;;;;;;13.00;11.95;;;27.60;99.90;;;;;;4999381;28;20245;-73
2023/06/20 08:35:06;;;;;;;11.80;10.80;;;27.80;99.90;;;;;;4994838;28;20304;-75
2023/06/20 08:37:32;;;;;;;11.93;10.90;;;28.10;99.90;;;;;;4984720;28;20239;-75
2023/06/20 08:39:57;;;;;;;11.10;10.10;;;28.30;99.90;;;;;;4996275;28;20213;-75
2023/06/20 08:42:23;;;;;;;10.70;9.77;;;28.50;99.90;;;;;;4994439;28;20252;-74
2023/06/20 08:44:50;;;;;;;11.35;10.35;;;28.50;99.90;;;;;;4998811;28;20209;-73
2023/06/20 08:47:15;;;;;;;11.05;9.98;;;28.40;99.90;;;;;;5002018;28;20233;-73
2023/06/20 08:49:41;;;;;;;10.30;9.40;;;28.40;99.90;;;;;;4978979;28;20263;-72
2023/06/20 08:52:11;;;;;;;10.80;9.70;;;28.50;99.90;;;;;;4998128;28;20287;-73
2023/06/20 08:54:41;;;;;;;10.82;9.82;;;28.70;98.80;;;;;;4991775;28;20216;-72
2023/06/20 08:57:07;;;;;;;11.00;10.05;;;28.90;99.00;;;;;;4982600;28;20323;-72
2023/06/20 08:59:36;;;;;;;10.13;9.23;;;29.10;98.90;;;;;;4997984;28;20761;-73
2023/06/20 09:02:07;;;;;;;9.80;8.95;;;29.10;98.70;;;;;;4997697;28;20228;-74
2023/06/20 09:04:33;;;;;;;10.15;9.25;;;29.20;98.70;;;;;;4995744;28;20300;-74
2023/06/20 09:07:01;;;;;;;9.73;8.82;;;29.10;98.20;;;;;;5002898;28;20343;-72
2023/06/20 09:09:26;;;;;;;10.57;9.68;;;29.00;98.30;;;;;;4998130;28;20225;-74
2023/06/20 09:11:59;;;;;;;11.63;10.45;;;29.10;98.60;;;;;;4994218;28;20230;-75
2023/06/20 09:14:29;;;;;;;10.48;9.57;;;29.30;98.60;;;;;;4993724;28;20340;-72
2023/06/20 09:16:55;;;;;;;10.73;9.88;;;29.60;98.20;;;;;;4999272;28;20229;-73
2023/06/20 09:19:22;;;;;;;10.30;9.30;;;29.70;97.40;;;;;;5000926;28;20756;-74
2023/06/20 09:21:48;;;;;;;10.90;9.85;;;29.80;97.60;;;;;;5001556;28;20249;-73
2023/06/20 09:24:19;;;;;;;10.50;9.50;;;29.80;97.40;;;;;;5002199;28;20221;-77
2023/06/20 09:26:46;;;;;;;11.50;10.60;;;29.80;97.60;;;;;;4999390;28;20233;-73
2023/06/20 09:29:15;;;;;;;11.23;10.23;;;29.80;97.60;;;;;;4999136;28;20221;-73
2023/06/20 09:31:49;;;;;;;10.35;9.45;;;29.90;97.10;;;;;;4997512;28;20229;-73
2023/06/20 09:34:19;;;;;;;10.40;9.52;;;30.20;96.80;;;;;;4999090;28;20593;-75
2023/06/20 09:36:48;;;;;;;9.82;8.82;;;30.20;96.70;;;;;;5001871;28;20226;-73
2023/06/20 09:39:20;;;;;;;11.68;10.70;;;30.30;96.90;;;;;;5001104;28;20313;-73
2023/06/20 09:41:52;;;;;;;12.88;10.88;;;30.50;96.80;;;;;;5017977;28;20266;-74
2023/06/20 09:44:19;;;;;;;11.18;10.27;;;30.70;96.80;;;;;;4992165;28;20229;-74
2023/06/20 09:46:45;;;;;;;11.30;10.40;;;30.70;96.60;;;;;;5003733;28;20221;-73
2023/06/20 09:49:12;;;;;;;11.20;10.30;;;30.70;96.60;;;;;;5004421;28;20288;-73
2023/06/20 09:51:44;;;;;;;11.80;10.80;;;30.80;96.50;;;;;;5006056;28;20233;-74
2023/06/20 09:54:15;;;;;;;11.13;10.23;;;31.00;95.90;;;;;;5003581;28;20225;-73
2023/06/20 09:56:49;;;;;;;13.65;12.55;;;31.20;95.80;;;;;;5007123;28;20691;-73
2023/06/20 09:59:16;;;;;;;11.50;10.55;;;31.20;95.70;;;;;;5004553;28;20229;-74
2023/06/20 10:01:43;;;;;;;11.07;10.20;;;31.20;95.60;;;;;;5006622;28;20808;-73
2023/06/20 10:04:09;;;;;;;11.70;10.70;;;31.20;95.70;;;;;;5001070;28;20226;-73
2023/06/20 10:06:37;;;;;;;11.13;10.20;;;31.20;95.70;;;;;;5004467;28;20255;-73
2023/06/20 10:09:09;;;;;;;10.77;9.80;;;31.40;95.40;;;;;;5006139;28;20229;-72
2023/06/20 10:11:37;;;;;;;11.05;10.05;;;31.70;94.80;;;;;;5006546;28;20288;-72
2023/06/20 10:14:04;;;;;;;9.00;8.30;;;32.00;93.90;;;;;;5007041;28;20232;-73
2023/06/20 10:16:30;;;;;;;9.52;8.73;;;32.20;93.90;;;;;;4989563;28;20300;-73
2023/06/20 10:18:56;;;;;;;9.18;8.48;;;32.10;93.40;;;;;;4999947;28;20232;-73
2023/06/20 10:22:00;;;;;;;10.15;9.25;;;32.30;93.00;;;;;;5004940;28;20217;-73
2023/06/20 10:24:28;;;;;;;9.57;8.77;;;32.40;92.70;;;;;;4999533;28;20222;-73
2023/06/20 10:26:55;;;;;;;9.23;8.43;;;32.60;92.80;;;;;;4999491;28;20221;-73
2023/06/20 10:29:21;;;;;;;9.35;8.55;;;32.60;91.80;;;;;;5005353;28;20648;-73
2023/06/20 10:31:54;;;;;;;8.15;7.55;;;32.80;91.00;;;;;;5003602;28;20229;-74
2023/06/20 10:34:31;;;;;;;9.82;9.02;;;32.80;91.20;;;;;;5000964;28;20214;-73
2023/06/20 10:37:16;;;;;;;8.82;8.13;;;32.90;90.60;;;;;;5004817;28;20249;-73
2023/06/20 10:39:56;;;;;;;8.43;7.82;;;32.90;90.80;;;;;;5018871;28;20283;-73
2023/06/20 10:42:45;;;;;;;9.00;8.15;;;32.90;89.70;;;;;;5002546;28;20736;-73
2023/06/20 10:45:25;;;;;;;8.38;7.60;;;33.00;90.10;;;;;;4997718;28;20778;-73
2023/06/20 10:47:52;;;;;;;7.78;7.18;;;32.90;90.20;;;;;;5002979;28;20227;-72
2023/06/20 10:50:18;;;;;;;7.80;7.00;;;32.80;90.70;;;;;;4997917;28;20222;-74
2023/06/20 10:52:44;;;;;;;7.50;6.95;;;33.00;89.70;;;;;;5000242;28;20595;-76
2023/06/20 10:55:21;;;;;;;7.88;7.28;;;33.40;88.90;;;;;;4997249;28;20224;-74
2023/06/20 10:57:47;;;;;;;7.47;6.88;;;33.40;87.50;;;;;;4986039;28;20283;-73
2023/06/20 11:00:17;;;;;;;6.70;6.20;;;33.50;86.80;;;;;;5004583;28;20790;-73
2023/06/20 11:02:46;;;;;;;7.50;7.00;;;33.50;84.80;;;;;;5003078;28;20235;-74
2023/06/20 11:05:12;;;;;;;7.38;6.78;;;33.40;84.80;;;;;;5002970;28;20214;-73
2023/06/20 11:08:00;;;;;;;7.35;6.60;;;33.30;85.20;;;;;;5002880;28;20213;-74
2023/06/20 11:10:28;;;;;;;7.15;6.55;;;33.50;84.00;;;;;;4994483;28;20248;-75
2023/06/20 11:12:56;;;;;;;7.43;6.82;;;33.60;83.90;;;;;;4999085;28;20221;-73
2023/06/20 11:15:41;;;;;;;7.85;7.25;;;33.60;84.10;;;;;;4995573;28;20214;-73
2023/06/20 11:18:08;;;;;;;6.95;6.40;;;33.60;83.20;;;;;;5001335;28;20224;-73
2023/06/20 11:20:36;;;;;;;7.05;6.55;;;33.60;83.40;;;;;;4999811;28;20217;-72
2023/06/20 11:23:04;;;;;;;7.30;6.80;;;33.60;83.40;;;;;;4992602;28;20225;-75
2023/06/20 11:25:35;;;;;;;6.55;6.05;;;33.80;81.40;;;;;;4995974;28;20253;-74
2023/06/20 11:28:12;;;;;;;6.90;6.35;;;33.90;81.60;;;;;;4998942;28;20831;-73
2023/06/20 11:30:40;;;;;;;5.70;5.28;;;33.90;81.20;;;;;;4999400;28;20218;-78
2023/06/20 11:33:06;;;;;;;7.97;7.38;;;33.80;82.50;;;;;;4992658;28;20313;-73
2023/06/20 11:35:45;;;;;;;7.43;6.82;;;33.70;83.50;;;;;;5000541;28;20276;-74
2023/06/20 11:38:17;;;;;;;7.10;6.50;;;33.90;81.10;;;;;;5015279;28;20277;-74
2023/06/20 11:40:43;;;;;;;7.88;7.38;;;34.20;80.10;;;;;;5003568;28;20221;-74
2023/06/20 11:43:20;;;;;;;7.13;6.43;;;34.30;80.60;;;;;;4996461;28;20221;-73
2023/06/20 11:45:45;;;;;;;7.78;7.18;;;34.30;80.40;;;;;;5013093;28;20225;-73
2023/06/20 11:48:13;;;;;;;7.50;6.90;;;34.40;79.70;;;;;;5001929;28;20687;-74
2023/06/20 11:50:43;;;;;;;7.95;7.25;;;34.40;79.10;;;;;;5002491;28;20228;-73
2023/06/20 11:53:20;;;;;;;8.10;7.40;;;34.30;78.70;;;;;;5004985;28;20222;-74
2023/06/20 11:55:51;;;;;;;7.95;7.35;;;34.30;79.50;;;;;;4988375;28;20268;-73
2023/06/20 11:58:17;;;;;;;7.40;6.78;;;34.20;78.80;;;;;;4973376;28;20240;-73
2023/06/20 12:00:48;;;;;;;7.45;6.95;;;34.40;78.60;;;;;;4998070;28;20272;-74
2023/06/20 12:03:18;;;;;;;8.23;7.43;;;34.40;78.80;;;;;;4999124;28;20217;-74
2023/06/20 12:05:44;;;;;;;8.25;7.55;;;34.80;77.50;;;;;;4998193;28;20225;-73
2023/06/20 12:08:10;;;;;;;7.53;7.03;;;34.70;76.20;;;;;;5002803;28;20259;-76
2023/06/20 12:10:57;;;;;;;7.40;6.80;;;34.80;76.40;;;;;;5002370;28;20245;-74
2023/06/20 12:13:23;;;;;;;7.20;6.70;;;34.70;77.10;;;;;;5001003;28;20597;-74
2023/06/20 12:15:49;;;;;;;8.40;7.63;;;34.70;77.60;;;;;;4986806;28;20213;-73
2023/06/20 12:18:14;;;;;;;7.93;7.32;;;34.80;76.70;;;;;;4996506;28;20224;-74
2023/06/20 12:20:40;;;;;;;7.38;6.78;;;34.80;77.70;;;;;;5003427;28;20225;-75
2023/06/20 12:23:06;;;;;;;8.02;7.43;;;34.50;77.80;;;;;;5000519;28;20640;-74
2023/06/20 12:25:32;;;;;;;8.30;7.70;;;34.60;77.80;;;;;;5001110;28;20810;-75
2023/06/20 12:27:58;;;;;;;7.80;7.20;;;34.60;76.60;;;;;;4999887;28;20263;-73
2023/06/20 12:30:25;;;;;;;8.00;7.30;;;34.60;76.20;;;;;;5004464;28;20220;-74
2023/06/20 12:32:51;;;;;;;7.30;6.70;;;34.70;75.00;;;;;;5004561;28;20232;-74
2023/06/20 12:35:17;;;;;;;7.20;6.70;;;34.70;74.40;;;;;;5003507;28;20225;-73
2023/06/20 12:37:42;;;;;;;7.18;6.68;;;34.50;73.70;;;;;;5004346;28;20217;-73
2023/06/20 12:40:10;;;;;;;7.38;6.88;;;34.50;74.70;;;;;;5000278;28;20214;-73
2023/06/20 12:42:36;;;;;;;6.88;6.38;;;34.50;75.90;;;;;;4994804;28;20213;-75
2023/06/20 12:45:03;;;;;;;7.65;6.93;;;34.40;74.40;;;;;;5004683;28;20259;-74